Verden, OK (73092)

11:17 PM CST on February 26, 2015 (GMT -0600)
Chickasha Municipal | Change Station
CLOSE
Current Station
Airport
Location: Chickasha,
Elevation: 1152 ft
Nearby Weather Stations
Active Advisory: Winter Weather Advisory

Elev 1152 ft 35.10 °N, 97.97 °W | Updated 22 minutes ago

Partly Cloudy
Partly Cloudy
23 °F
Feels Like 12 °F
N
12
Wind Variable Wind from NNE

Today
High -- | Low -- °F
--% Chance of Precip.
Yesterday
High -- | Low -- °F
Precip. -- in
7:05 AM 6:25 PM
Waxing Gibbous, 65% visible
Pressure 30.46 in
Visibility 10.0 miles
Clouds Clear
Windchill 12 °F
Dew Point 7 °F
Humidity 50%
Rainfall 0.00 in
Snow Depth Not available.
UV 0 out of 12
Pollen 5.90 out of 12
Air Quality Not available.
Flu Activity Not available.
METAR KCHK 270455Z AUTO 03010KT 10SM CLR M05/M14 A3046 RMK AO2

More Conditions Fewer Conditions

Pressure 30.46 in
Visibility 10.0 miles
Clouds Clear
Windchill 12 °F
Dew Point 7 °F
Humidity 50%
Rainfall 0.00 in
Snow Depth Not available.
UV 0 out of 12
Pollen 5.90 out of 12
Air Quality Not available.
Flu Activity Not available.
METAR KCHK 270455Z AUTO 03010KT 10SM CLR M05/M14 A3046 RMK AO2

More Conditions Fewer Conditions

10-Day Weather Forecast

Almanac

Astronomy

Feb. 26, 2015 Rise Set
Actual Time
Civil Twilight
Nautical Twilight
Astronomical Twilight
Moon
Length of Visible Light
Length of Day
Tomorrow will be .
, % of the Moon is Illuminated

Today's Extremes

State Highs State Lows

Community

WunderPhotos

Upload Photos

1,800,637 photos uploaded!

WunderBlogs® & News

Nearby

Air Quality

  Air Quality AQ Index Pollutant
Not available.

Snow Depth

Station Depth Elevation

Earthquake Activity

City Distance Mag. Time & Date
Minimum magnitude displayed is 2.5.

Coastal Water Temperatures

Place Temperature

Nearby Weather Stations

Winter Weather Advisory
Statement as of 9:21 PM CST on February 26, 2015

... Winter Weather Advisory remains in effect from 6 am to 6 PM
CST Friday...

A Winter Weather Advisory remains in effect from 6 am to 6 PM CST
Friday.

* Timing: light to moderate snow will develop around 6 am and
move into portions of western Oklahoma and western North Texas
through the morning and into the evening.

* Main impact: 1 to 3 inches of snow.

* Other impacts: slick and hazardous roads can be expected...
impacting the Friday morning commute.

Precautionary/preparedness actions...

Be careful if you have to travel. Even small amounts of ice and
snow can make roads and sidewalks slick and dangerous.